sensor_id;sensor_type;location;lat;lon;timestamp;temperature;humidity
20442;DHT22;10380;52.102;20.614;2022-08-19T00:01:45;23.50;99.90
20442;DHT22;10380;52.102;20.614;2022-08-19T00:04:25;23.50;99.90
20442;DHT22;10380;52.102;20.614;2022-08-19T00:06:53;23.50;99.90
20442;DHT22;10380;52.102;20.614;2022-08-19T00:09:22;23.40;99.90
20442;DHT22;10380;52.102;20.614;2022-08-19T00:11:50;23.40;99.90
20442;DHT22;10380;52.102;20.614;2022-08-19T00:14:18;23.40;99.90
20442;DHT22;10380;52.102;20.614;2022-08-19T00:16:47;23.30;99.90
20442;DHT22;10380;52.102;20.614;2022-08-19T00:19:16;23.30;99.90
20442;DHT22;10380;52.102;20.614;2022-08-19T00:21:43;23.30;99.90
20442;DHT22;10380;52.102;20.614;2022-08-19T00:24:13;23.20;99.90
20442;DHT22;10380;52.102;20.614;2022-08-19T00:26:42;23.20;99.90
20442;DHT22;10380;52.102;20.614;2022-08-19T00:29:12;23.10;99.90
20442;DHT22;10380;52.102;20.614;2022-08-19T00:31:39;23.10;99.90
20442;DHT22;10380;52.102;20.614;2022-08-19T00:34:07;23.10;99.90
20442;DHT22;10380;52.102;20.614;2022-08-19T00:36:34;23.00;99.90
20442;DHT22;10380;52.102;20.614;2022-08-19T00:39:02;23.00;99.90
20442;DHT22;10380;52.102;20.614;2022-08-19T00:41:29;23.00;99.90
20442;DHT22;10380;52.102;20.614;2022-08-19T00:44:03;22.90;99.90
20442;DHT22;10380;52.102;20.614;2022-08-19T00:46:32;22.90;99.90
20442;DHT22;10380;52.102;20.614;2022-08-19T00:49:03;22.90;99.90
20442;DHT22;10380;52.102;20.614;2022-08-19T00:51:33;22.90;99.90
20442;DHT22;10380;52.102;20.614;2022-08-19T00:54:02;22.90;99.90
20442;DHT22;10380;52.102;20.614;2022-08-19T00:56:30;22.90;99.90
20442;DHT22;10380;52.102;20.614;2022-08-19T00:58:58;22.80;99.90
20442;DHT22;10380;52.102;20.614;2022-08-19T01:01:26;22.80;99.90
20442;DHT22;10380;52.102;20.614;2022-08-19T01:03:53;22.80;99.90
20442;DHT22;10380;52.102;20.614;2022-08-19T01:06:26;22.80;99.90
20442;DHT22;10380;52.102;20.614;2022-08-19T01:08:54;22.70;99.90
20442;DHT22;10380;52.102;20.614;2022-08-19T01:11:22;22.70;99.90
20442;DHT22;10380;52.102;20.614;2022-08-19T01:13:50;22.70;99.90
20442;DHT22;10380;52.102;20.614;2022-08-19T01:16:21;22.70;99.90
20442;DHT22;10380;52.102;20.614;2022-08-19T01:18:49;22.60;99.90
20442;DHT22;10380;52.102;20.614;2022-08-19T01:21:36;22.60;99.90
20442;DHT22;10380;52.102;20.614;2022-08-19T01:24:06;22.50;99.90
20442;DHT22;10380;52.102;20.614;2022-08-19T01:26:39;22.50;99.90
20442;DHT22;10380;52.102;20.614;2022-08-19T01:29:08;22.50;99.90
20442;DHT22;10380;52.102;20.614;2022-08-19T01:31:35;22.50;99.90
20442;DHT22;10380;52.102;20.614;2022-08-19T01:34:03;22.50;99.90
20442;DHT22;10380;52.102;20.614;2022-08-19T01:36:37;22.50;99.90
20442;DHT22;10380;52.102;20.614;2022-08-19T01:39:09;22.50;99.90
20442;DHT22;10380;52.102;20.614;2022-08-19T01:41:36;22.40;99.90
20442;DHT22;10380;52.102;20.614;2022-08-19T01:44:05;22.40;99.90
20442;DHT22;10380;52.102;20.614;2022-08-19T01:46:45;22.40;99.90
20442;DHT22;10380;52.102;20.614;2022-08-19T01:49:14;22.40;99.90
20442;DHT22;10380;52.102;20.614;2022-08-19T01:51:41;22.30;99.90
20442;DHT22;10380;52.102;20.614;2022-08-19T01:54:10;22.30;99.90
20442;DHT22;10380;52.102;20.614;2022-08-19T01:56:38;22.30;99.90
20442;DHT22;10380;52.102;20.614;2022-08-19T01:59:10;22.30;99.90
20442;DHT22;10380;52.102;20.614;2022-08-19T02:01:38;22.20;99.90
20442;DHT22;10380;52.102;20.614;2022-08-19T02:04:06;22.20;99.90
20442;DHT22;10380;52.102;20.614;2022-08-19T02:06:35;22.10;99.90
20442;DHT22;10380;52.102;20.614;2022-08-19T02:09:06;22.10;99.90
20442;DHT22;10380;52.102;20.614;2022-08-19T02:11:36;22.10;99.90
20442;DHT22;10380;52.102;20.614;2022-08-19T02:14:06;22.10;99.90
20442;DHT22;10380;52.102;20.614;2022-08-19T02:16:34;22.10;99.90
20442;DHT22;10380;52.102;20.614;2022-08-19T02:19:02;22.10;99.90
20442;DHT22;10380;52.102;20.614;2022-08-19T02:21:29;22.10;99.90
20442;DHT22;10380;52.102;20.614;2022-08-19T02:23:57;22.00;99.90
20442;DHT22;10380;52.102;20.614;2022-08-19T02:26:24;22.00;99.90
20442;DHT22;10380;52.102;20.614;2022-08-19T02:28:53;22.00;99.90
20442;DHT22;10380;52.102;20.614;2022-08-19T02:31:23;21.90;99.90
20442;DHT22;10380;52.102;20.614;2022-08-19T02:33:51;21.90;99.90
20442;DHT22;10380;52.102;20.614;2022-08-19T02:36:23;21.90;99.90
20442;DHT22;10380;52.102;20.614;2022-08-19T02:38:51;21.90;99.90
20442;DHT22;10380;52.102;20.614;2022-08-19T02:41:27;21.80;99.90
20442;DHT22;10380;52.102;20.614;2022-08-19T02:44:00;21.80;99.90
20442;DHT22;10380;52.102;20.614;2022-08-19T02:46:48;21.80;99.90
20442;DHT22;10380;52.102;20.614;2022-08-19T02:49:19;21.80;99.90
20442;DHT22;10380;52.102;20.614;2022-08-19T02:51:47;21.70;99.90
20442;DHT22;10380;52.102;20.614;2022-08-19T02:54:14;21.70;99.90
20442;DHT22;10380;52.102;20.614;2022-08-19T02:56:43;21.70;99.90
20442;DHT22;10380;52.102;20.614;2022-08-19T02:59:10;21.70;99.90
20442;DHT22;10380;52.102;20.614;2022-08-19T03:01:41;21.70;99.90
20442;DHT22;10380;52.102;20.614;2022-08-19T03:04:12;21.70;99.90
20442;DHT22;10380;52.102;20.614;2022-08-19T03:06:41;21.70;99.90
20442;DHT22;10380;52.102;20.614;2022-08-19T03:09:08;21.70;99.90
20442;DHT22;10380;52.102;20.614;2022-08-19T03:11:36;21.70;99.90
20442;DHT22;10380;52.102;20.614;2022-08-19T03:14:05;21.60;99.90
20442;DHT22;10380;52.102;20.614;2022-08-19T03:16:35;21.60;99.90
20442;DHT22;10380;52.102;20.614;2022-08-19T03:19:06;21.60;99.90
20442;DHT22;10380;52.102;20.614;2022-08-19T03:21:35;21.60;99.90
20442;DHT22;10380;52.102;20.614;2022-08-19T03:24:06;21.60;99.90
20442;DHT22;10380;52.102;20.614;2022-08-19T03:26:39;21.60;99.90
20442;DHT22;10380;52.102;20.614;2022-08-19T03:29:08;21.60;99.90
20442;DHT22;10380;52.102;20.614;2022-08-19T03:31:40;21.60;99.90
20442;DHT22;10380;52.102;20.614;2022-08-19T03:34:22;21.60;99.90
20442;DHT22;10380;52.102;20.614;2022-08-19T03:36:49;21.60;99.90
20442;DHT22;10380;52.102;20.614;2022-08-19T03:39:18;21.60;99.90
20442;DHT22;10380;52.102;20.614;2022-08-19T03:41:46;21.50;99.90
20442;DHT22;10380;52.102;20.614;2022-08-19T03:44:16;21.50;99.90
20442;DHT22;10380;52.102;20.614;2022-08-19T03:46:51;21.50;99.90
20442;DHT22;10380;52.102;20.614;2022-08-19T03:49:19;21.50;99.90
20442;DHT22;10380;52.102;20.614;2022-08-19T03:51:54;21.50;99.90
20442;DHT22;10380;52.102;20.614;2022-08-19T03:54:23;21.50;99.90
20442;DHT22;10380;52.102;20.614;2022-08-19T03:56:52;21.50;99.90
20442;DHT22;10380;52.102;20.614;2022-08-19T03:59:32;21.50;99.90
20442;DHT22;10380;52.102;20.614;2022-08-19T04:02:05;21.50;99.90
20442;DHT22;10380;52.102;20.614;2022-08-19T04:04:33;21.50;99.90
20442;DHT22;10380;52.102;20.614;2022-08-19T04:07:00;21.60;99.90
20442;DHT22;10380;52.102;20.614;2022-08-19T04:09:28;21.60;99.90
20442;DHT22;10380;52.102;20.614;2022-08-19T04:11:56;21.60;99.90
20442;DHT22;10380;52.102;20.614;2022-08-19T04:14:27;21.70;99.90
20442;DHT22;10380;52.102;20.614;2022-08-19T04:16:58;21.70;99.90
20442;DHT22;10380;52.102;20.614;2022-08-19T04:19:26;21.80;99.90
20442;DHT22;10380;52.102;20.614;2022-08-19T04:21:54;21.80;99.90
20442;DHT22;10380;52.102;20.614;2022-08-19T04:24:22;21.80;99.90
20442;DHT22;10380;52.102;20.614;2022-08-19T04:26:49;21.80;99.90
20442;DHT22;10380;52.102;20.614;2022-08-19T04:29:23;21.90;99.90
20442;DHT22;10380;52.102;20.614;2022-08-19T04:31:53;21.90;99.90
20442;DHT22;10380;52.102;20.614;2022-08-19T04:34:22;22.00;99.90
20442;DHT22;10380;52.102;20.614;2022-08-19T04:36:55;22.10;99.90
20442;DHT22;10380;52.102;20.614;2022-08-19T04:39:26;22.10;99.90
20442;DHT22;10380;52.102;20.614;2022-08-19T04:42:12;22.20;99.90
20442;DHT22;10380;52.102;20.614;2022-08-19T04:44:58;22.20;99.90
20442;DHT22;10380;52.102;20.614;2022-08-19T04:47:26;22.30;99.90
20442;DHT22;10380;52.102;20.614;2022-08-19T04:50:13;22.30;99.90
20442;DHT22;10380;52.102;20.614;2022-08-19T04:52:40;22.40;99.90
20442;DHT22;10380;52.102;20.614;2022-08-19T04:55:13;22.40;99.90
20442;DHT22;10380;52.102;20.614;2022-08-19T04:57:40;22.40;99.90
20442;DHT22;10380;52.102;20.614;2022-08-19T05:00:09;22.50;99.90
20442;DHT22;10380;52.102;20.614;2022-08-19T05:02:37;22.50;99.90
20442;DHT22;10380;52.102;20.614;2022-08-19T05:05:05;22.60;99.90
20442;DHT22;10380;52.102;20.614;2022-08-19T05:07:34;22.60;99.90
20442;DHT22;10380;52.102;20.614;2022-08-19T05:10:02;22.70;99.90
20442;DHT22;10380;52.102;20.614;2022-08-19T05:12:29;22.70;99.90
20442;DHT22;10380;52.102;20.614;2022-08-19T05:14:57;22.80;99.90
20442;DHT22;10380;52.102;20.614;2022-08-19T05:17:26;22.80;99.90
20442;DHT22;10380;52.102;20.614;2022-08-19T05:19:59;22.80;99.90
20442;DHT22;10380;52.102;20.614;2022-08-19T05:22:46;22.90;99.90
20442;DHT22;10380;52.102;20.614;2022-08-19T05:25:17;22.90;99.90
20442;DHT22;10380;52.102;20.614;2022-08-19T05:27:46;23.00;99.90
20442;DHT22;10380;52.102;20.614;2022-08-19T05:30:15;23.10;99.90
20442;DHT22;10380;52.102;20.614;2022-08-19T05:32:42;23.10;99.90
20442;DHT22;10380;52.102;20.614;2022-08-19T05:35:10;23.20;99.90
20442;DHT22;10380;52.102;20.614;2022-08-19T05:37:39;23.30;99.90
20442;DHT22;10380;52.102;20.614;2022-08-19T05:40:09;23.40;99.90
20442;DHT22;10380;52.102;20.614;2022-08-19T05:42:37;23.40;99.90
20442;DHT22;10380;52.102;20.614;2022-08-19T05:45:07;23.50;99.90
20442;DHT22;10380;52.102;20.614;2022-08-19T05:47:34;23.70;99.90
20442;DHT22;10380;52.102;20.614;2022-08-19T05:50:08;23.80;99.90
20442;DHT22;10380;52.102;20.614;2022-08-19T05:52:37;23.90;99.90
20442;DHT22;10380;52.102;20.614;2022-08-19T05:55:09;24.10;99.90
20442;DHT22;10380;52.102;20.614;2022-08-19T05:57:37;24.20;99.90
20442;DHT22;10380;52.102;20.614;2022-08-19T06:00:06;24.30;99.90
20442;DHT22;10380;52.102;20.614;2022-08-19T06:02:37;24.30;99.90
20442;DHT22;10380;52.102;20.614;2022-08-19T06:05:06;24.40;99.90
20442;DHT22;10380;52.102;20.614;2022-08-19T06:07:34;24.40;99.90
20442;DHT22;10380;52.102;20.614;2022-08-19T06:10:00;24.40;99.90
20442;DHT22;10380;52.102;20.614;2022-08-19T06:12:29;24.40;99.90
20442;DHT22;10380;52.102;20.614;2022-08-19T06:15:05;24.40;99.90
20442;DHT22;10380;52.102;20.614;2022-08-19T06:17:32;24.50;99.90
20442;DHT22;10380;52.102;20.614;2022-08-19T06:20:06;24.60;99.90
20442;DHT22;10380;52.102;20.614;2022-08-19T06:22:42;24.60;99.90
20442;DHT22;10380;52.102;20.614;2022-08-19T06:25:10;24.60;99.90
20442;DHT22;10380;52.102;20.614;2022-08-19T06:27:38;24.60;99.90
20442;DHT22;10380;52.102;20.614;2022-08-19T06:30:25;24.70;99.90
20442;DHT22;10380;52.102;20.614;2022-08-19T06:32:53;24.80;99.90
20442;DHT22;10380;52.102;20.614;2022-08-19T06:35:20;24.80;99.90
20442;DHT22;10380;52.102;20.614;2022-08-19T06:37:47;24.90;99.90
20442;DHT22;10380;52.102;20.614;2022-08-19T06:40:14;25.00;99.90
20442;DHT22;10380;52.102;20.614;2022-08-19T06:42:42;25.10;99.90
20442;DHT22;10380;52.102;20.614;2022-08-19T06:45:23;25.30;99.90
20442;DHT22;10380;52.102;20.614;2022-08-19T06:48:00;25.40;99.90
20442;DHT22;10380;52.102;20.614;2022-08-19T06:50:27;25.50;99.90
20442;DHT22;10380;52.102;20.614;2022-08-19T06:52:54;25.60;99.90
20442;DHT22;10380;52.102;20.614;2022-08-19T06:55:21;25.70;99.90
20442;DHT22;10380;52.102;20.614;2022-08-19T06:57:49;25.70;99.90
20442;DHT22;10380;52.102;20.614;2022-08-19T07:00:20;25.80;99.90
20442;DHT22;10380;52.102;20.614;2022-08-19T07:02:48;25.80;99.90
20442;DHT22;10380;52.102;20.614;2022-08-19T07:05:23;25.80;99.90
20442;DHT22;10380;52.102;20.614;2022-08-19T07:07:50;25.90;99.90
20442;DHT22;10380;52.102;20.614;2022-08-19T07:10:17;26.00;99.90
20442;DHT22;10380;52.102;20.614;2022-08-19T07:12:46;26.00;99.90
20442;DHT22;10380;52.102;20.614;2022-08-19T07:15:15;26.10;99.90
20442;DHT22;10380;52.102;20.614;2022-08-19T07:17:44;26.20;99.90
20442;DHT22;10380;52.102;20.614;2022-08-19T07:20:14;26.30;99.90
20442;DHT22;10380;52.102;20.614;2022-08-19T07:22:44;26.40;99.90
20442;DHT22;10380;52.102;20.614;2022-08-19T07:25:12;26.50;99.90
20442;DHT22;10380;52.102;20.614;2022-08-19T07:27:39;26.50;99.90
20442;DHT22;10380;52.102;20.614;2022-08-19T07:30:12;26.60;99.90
20442;DHT22;10380;52.102;20.614;2022-08-19T07:32:40;26.70;99.90
20442;DHT22;10380;52.102;20.614;2022-08-19T07:35:08;26.70;99.90
20442;DHT22;10380;52.102;20.614;2022-08-19T07:37:36;26.80;99.90
20442;DHT22;10380;52.102;20.614;2022-08-19T07:40:05;26.90;99.90
20442;DHT22;10380;52.102;20.614;2022-08-19T07:42:33;27.00;99.90
20442;DHT22;10380;52.102;20.614;2022-08-19T07:45:00;27.10;99.90
20442;DHT22;10380;52.102;20.614;2022-08-19T07:47:27;27.10;99.90
20442;DHT22;10380;52.102;20.614;2022-08-19T07:50:15;27.20;99.90
20442;DHT22;10380;52.102;20.614;2022-08-19T07:52:43;27.40;99.90
20442;DHT22;10380;52.102;20.614;2022-08-19T07:55:16;27.50;99.90
20442;DHT22;10380;52.102;20.614;2022-08-19T07:58:04;27.60;99.90
20442;DHT22;10380;52.102;20.614;2022-08-19T08:00:32;27.70;99.90
20442;DHT22;10380;52.102;20.614;2022-08-19T08:02:59;27.80;99.90
20442;DHT22;10380;52.102;20.614;2022-08-19T08:05:26;27.80;99.90
20442;DHT22;10380;52.102;20.614;2022-08-19T08:08:14;27.90;99.90
20442;DHT22;10380;52.102;20.614;2022-08-19T08:10:59;28.00;99.90
20442;DHT22;10380;52.102;20.614;2022-08-19T08:13:27;28.10;99.90
20442;DHT22;10380;52.102;20.614;2022-08-19T08:15:55;28.20;99.90
20442;DHT22;10380;52.102;20.614;2022-08-19T08:18:24;28.20;99.90
20442;DHT22;10380;52.102;20.614;2022-08-19T08:20:56;28.20;99.90
20442;DHT22;10380;52.102;20.614;2022-08-19T08:23:24;28.20;99.90
20442;DHT22;10380;52.102;20.614;2022-08-19T08:25:56;28.30;99.90
20442;DHT22;10380;52.102;20.614;2022-08-19T08:28:26;28.40;99.90
20442;DHT22;10380;52.102;20.614;2022-08-19T08:30:56;28.40;99.90
20442;DHT22;10380;52.102;20.614;2022-08-19T08:33:26;28.40;99.90
20442;DHT22;10380;52.102;20.614;2022-08-19T08:36:01;28.40;99.90
20442;DHT22;10380;52.102;20.614;2022-08-19T08:38:31;28.50;99.90
20442;DHT22;10380;52.102;20.614;2022-08-19T08:43:40;28.50;99.90
20442;DHT22;10380;52.102;20.614;2022-08-19T08:51:50;28.60;99.90
20442;DHT22;10380;52.102;20.614;2022-08-19T08:54:35;28.70;99.90
20442;DHT22;10380;52.102;20.614;2022-08-19T08:57:12;28.70;99.90
20442;DHT22;10380;52.102;20.614;2022-08-19T08:59:41;28.80;99.90
20442;DHT22;10380;52.102;20.614;2022-08-19T09:02:10;28.80;99.90
20442;DHT22;10380;52.102;20.614;2022-08-19T09:04:37;28.90;99.90
20442;DHT22;10380;52.102;20.614;2022-08-19T09:12:53;29.00;99.90
20442;DHT22;10380;52.102;20.614;2022-08-19T09:15:30;29.10;99.90
20442;DHT22;10380;52.102;20.614;2022-08-19T09:18:04;29.10;99.90
20442;DHT22;10380;52.102;20.614;2022-08-19T09:20:33;29.20;99.90
20442;DHT22;10380;52.102;20.614;2022-08-19T09:23:01;29.30;99.90
20442;DHT22;10380;52.102;20.614;2022-08-19T09:25:28;29.30;99.90
20442;DHT22;10380;52.102;20.614;2022-08-19T09:27:55;29.40;99.90
20442;DHT22;10380;52.102;20.614;2022-08-19T09:30:34;29.50;99.90
20442;DHT22;10380;52.102;20.614;2022-08-19T09:33:01;29.60;99.90
20442;DHT22;10380;52.102;20.614;2022-08-19T09:35:29;29.70;99.90
20442;DHT22;10380;52.102;20.614;2022-08-19T09:37:58;29.70;99.90
20442;DHT22;10380;52.102;20.614;2022-08-19T09:40:30;29.80;99.90
20442;DHT22;10380;52.102;20.614;2022-08-19T09:43:05;29.80;99.90
20442;DHT22;10380;52.102;20.614;2022-08-19T09:45:39;29.80;99.90
20442;DHT22;10380;52.102;20.614;2022-08-19T09:48:06;29.90;99.90
20442;DHT22;10380;52.102;20.614;2022-08-19T09:50:40;29.90;99.90
20442;DHT22;10380;52.102;20.614;2022-08-19T09:53:19;30.00;99.90
20442;DHT22;10380;52.102;20.614;2022-08-19T09:55:55;30.00;99.90
20442;DHT22;10380;52.102;20.614;2022-08-19T09:58:22;30.10;99.90
20442;DHT22;10380;52.102;20.614;2022-08-19T10:00:55;30.10;99.90
20442;DHT22;10380;52.102;20.614;2022-08-19T10:03:23;30.20;99.90
20442;DHT22;10380;52.102;20.614;2022-08-19T10:05:57;30.20;99.90
20442;DHT22;10380;52.102;20.614;2022-08-19T10:08:28;30.30;99.90
20442;DHT22;10380;52.102;20.614;2022-08-19T10:10:56;30.30;99.90
20442;DHT22;10380;52.102;20.614;2022-08-19T10:13:28;30.30;99.90
20442;DHT22;10380;52.102;20.614;2022-08-19T10:16:05;30.40;99.90
20442;DHT22;10380;52.102;20.614;2022-08-19T10:18:33;30.40;99.90
20442;DHT22;10380;52.102;20.614;2022-08-19T10:23:42;30.50;99.90
20442;DHT22;10380;52.102;20.614;2022-08-19T10:26:15;30.60;99.90
20442;DHT22;10380;52.102;20.614;2022-08-19T10:28:44;30.60;99.90
20442;DHT22;10380;52.102;20.614;2022-08-19T10:31:18;30.70;99.90
20442;DHT22;10380;52.102;20.614;2022-08-19T10:34:06;30.70;99.90
20442;DHT22;10380;52.102;20.614;2022-08-19T10:36:36;30.80;99.90
20442;DHT22;10380;52.102;20.614;2022-08-19T10:39:21;30.80;99.90
20442;DHT22;10380;52.102;20.614;2022-08-19T10:41:49;30.80;99.90
20442;DHT22;10380;52.102;20.614;2022-08-19T10:44:16;30.90;99.90
20442;DHT22;10380;52.102;20.614;2022-08-19T10:46:44;30.90;99.90
20442;DHT22;10380;52.102;20.614;2022-08-19T10:49:16;31.00;99.90
20442;DHT22;10380;52.102;20.614;2022-08-19T10:51:45;31.00;99.90
20442;DHT22;10380;52.102;20.614;2022-08-19T10:54:36;31.10;99.90
20442;DHT22;10380;52.102;20.614;2022-08-19T10:57:21;31.10;99.90
20442;DHT22;10380;52.102;20.614;2022-08-19T11:00:04;31.10;99.90
20442;DHT22;10380;52.102;20.614;2022-08-19T11:02:31;31.10;99.90
20442;DHT22;10380;52.102;20.614;2022-08-19T11:04:59;31.20;99.90
20442;DHT22;10380;52.102;20.614;2022-08-19T11:07:39;31.30;99.90
20442;DHT22;10380;52.102;20.614;2022-08-19T11:10:08;31.40;99.90
20442;DHT22;10380;52.102;20.614;2022-08-19T11:12:40;31.40;99.90
20442;DHT22;10380;52.102;20.614;2022-08-19T11:15:09;31.50;99.90
20442;DHT22;10380;52.102;20.614;2022-08-19T11:17:38;31.60;99.90
20442;DHT22;10380;52.102;20.614;2022-08-19T11:20:12;31.70;99.90
20442;DHT22;10380;52.102;20.614;2022-08-19T11:22:41;31.90;99.90
20442;DHT22;10380;52.102;20.614;2022-08-19T11:25:11;31.90;99.90
20442;DHT22;10380;52.102;20.614;2022-08-19T11:27:40;32.00;99.90
20442;DHT22;10380;52.102;20.614;2022-08-19T11:30:13;32.10;99.90
20442;DHT22;10380;52.102;20.614;2022-08-19T11:32:41;32.20;99.90
20442;DHT22;10380;52.102;20.614;2022-08-19T11:35:15;32.40;99.90
20442;DHT22;10380;52.102;20.614;2022-08-19T11:37:48;32.50;99.90
20442;DHT22;10380;52.102;20.614;2022-08-19T11:40:17;32.70;99.90
20442;DHT22;10380;52.102;20.614;2022-08-19T11:42:44;32.90;99.90
20442;DHT22;10380;52.102;20.614;2022-08-19T11:45:27;33.20;99.90
20442;DHT22;10380;52.102;20.614;2022-08-19T11:47:55;33.60;99.90
20442;DHT22;10380;52.102;20.614;2022-08-19T11:50:23;34.00;99.90
20442;DHT22;10380;52.102;20.614;2022-08-19T11:52:53;34.60;99.90
20442;DHT22;10380;52.102;20.614;2022-08-19T11:55:21;35.10;99.90
20442;DHT22;10380;52.102;20.614;2022-08-19T11:57:48;35.70;99.90
20442;DHT22;10380;52.102;20.614;2022-08-19T12:00:16;36.40;99.90
20442;DHT22;10380;52.102;20.614;2022-08-19T12:02:43;37.10;99.90
20442;DHT22;10380;52.102;20.614;2022-08-19T12:05:10;37.70;99.90
20442;DHT22;10380;52.102;20.614;2022-08-19T12:07:40;38.20;99.90
20442;DHT22;10380;52.102;20.614;2022-08-19T12:10:08;38.60;99.90
20442;DHT22;10380;52.102;20.614;2022-08-19T12:12:37;39.00;99.90
20442;DHT22;10380;52.102;20.614;2022-08-19T12:15:13;39.30;99.90
20442;DHT22;10380;52.102;20.614;2022-08-19T12:17:42;39.70;99.20
20442;DHT22;10380;52.102;20.614;2022-08-19T12:20:10;40.20;98.10
20442;DHT22;10380;52.102;20.614;2022-08-19T12:22:38;40.50;96.80
20442;DHT22;10380;52.102;20.614;2022-08-19T12:25:09;40.70;94.90
20442;DHT22;10380;52.102;20.614;2022-08-19T12:27:38;40.90;93.90
20442;DHT22;10380;52.102;20.614;2022-08-19T12:30:10;41.10;93.60
20442;DHT22;10380;52.102;20.614;2022-08-19T12:32:38;41.20;92.60
20442;DHT22;10380;52.102;20.614;2022-08-19T12:35:07;41.50;92.10
20442;DHT22;10380;52.102;20.614;2022-08-19T12:37:34;41.50;91.10
20442;DHT22;10380;52.102;20.614;2022-08-19T12:40:02;41.80;90.90
20442;DHT22;10380;52.102;20.614;2022-08-19T12:42:30;41.90;90.30
20442;DHT22;10380;52.102;20.614;2022-08-19T12:44:57;42.10;89.70
20442;DHT22;10380;52.102;20.614;2022-08-19T12:47:25;42.10;89.50
20442;DHT22;10380;52.102;20.614;2022-08-19T12:49:53;42.20;88.20
20442;DHT22;10380;52.102;20.614;2022-08-19T12:52:25;42.30;86.90
20442;DHT22;10380;52.102;20.614;2022-08-19T12:54:55;42.40;86.20
20442;DHT22;10380;52.102;20.614;2022-08-19T12:57:25;42.40;86.20
20442;DHT22;10380;52.102;20.614;2022-08-19T13:00:13;42.50;86.40
20442;DHT22;10380;52.102;20.614;2022-08-19T13:02:44;42.80;83.80
20442;DHT22;10380;52.102;20.614;2022-08-19T13:05:16;42.80;82.30
20442;DHT22;10380;52.102;20.614;2022-08-19T13:07:45;43.00;81.40
20442;DHT22;10380;52.102;20.614;2022-08-19T13:10:14;43.00;80.40
20442;DHT22;10380;52.102;20.614;2022-08-19T13:12:46;43.20;80.20
20442;DHT22;10380;52.102;20.614;2022-08-19T13:15:16;43.20;79.60
20442;DHT22;10380;52.102;20.614;2022-08-19T13:17:52;43.20;78.90
20442;DHT22;10380;52.102;20.614;2022-08-19T13:20:20;43.20;78.00
20442;DHT22;10380;52.102;20.614;2022-08-19T13:22:48;43.20;77.60
20442;DHT22;10380;52.102;20.614;2022-08-19T13:25:16;43.20;76.60
20442;DHT22;10380;52.102;20.614;2022-08-19T13:27:47;43.20;77.10
20442;DHT22;10380;52.102;20.614;2022-08-19T13:30:18;43.30;76.50
20442;DHT22;10380;52.102;20.614;2022-08-19T13:33:05;43.60;75.50
20442;DHT22;10380;52.102;20.614;2022-08-19T13:35:49;43.60;74.90
20442;DHT22;10380;52.102;20.614;2022-08-19T13:38:19;43.60;74.90
20442;DHT22;10380;52.102;20.614;2022-08-19T13:40:49;43.60;74.10
20442;DHT22;10380;52.102;20.614;2022-08-19T13:43:18;43.70;74.00
20442;DHT22;10380;52.102;20.614;2022-08-19T13:45:53;43.90;74.20
20442;DHT22;10380;52.102;20.614;2022-08-19T13:48:24;43.90;72.50
20442;DHT22;10380;52.102;20.614;2022-08-19T13:50:53;43.70;72.30
20442;DHT22;10380;52.102;20.614;2022-08-19T13:53:21;43.50;72.10
20442;DHT22;10380;52.102;20.614;2022-08-19T13:55:48;43.30;72.00
20442;DHT22;10380;52.102;20.614;2022-08-19T13:58:18;43.20;71.90
20442;DHT22;10380;52.102;20.614;2022-08-19T14:00:46;43.00;72.00
20442;DHT22;10380;52.102;20.614;2022-08-19T14:03:17;42.90;72.50
20442;DHT22;10380;52.102;20.614;2022-08-19T14:05:44;42.70;72.40
20442;DHT22;10380;52.102;20.614;2022-08-19T14:08:13;42.40;73.80
20442;DHT22;10380;52.102;20.614;2022-08-19T14:10:41;42.40;74.20
20442;DHT22;10380;52.102;20.614;2022-08-19T14:13:14;42.40;73.90
20442;DHT22;10380;52.102;20.614;2022-08-19T14:15:43;42.20;73.50
20442;DHT22;10380;52.102;20.614;2022-08-19T14:18:11;42.00;73.10
20442;DHT22;10380;52.102;20.614;2022-08-19T14:20:40;41.90;73.30
20442;DHT22;10380;52.102;20.614;2022-08-19T14:23:07;41.70;73.60
20442;DHT22;10380;52.102;20.614;2022-08-19T14:25:34;41.50;73.50
20442;DHT22;10380;52.102;20.614;2022-08-19T14:28:02;41.40;73.60
20442;DHT22;10380;52.102;20.614;2022-08-19T14:30:32;41.10;73.40
20442;DHT22;10380;52.102;20.614;2022-08-19T14:33:01;41.10;73.80
20442;DHT22;10380;52.102;20.614;2022-08-19T14:35:31;41.00;73.50
20442;DHT22;10380;52.102;20.614;2022-08-19T14:38:05;40.80;73.30
20442;DHT22;10380;52.102;20.614;2022-08-19T14:40:33;40.60;73.80
20442;DHT22;10380;52.102;20.614;2022-08-19T14:43:03;40.50;74.90
20442;DHT22;10380;52.102;20.614;2022-08-19T14:45:35;40.30;74.90
20442;DHT22;10380;52.102;20.614;2022-08-19T14:48:04;40.40;75.10
20442;DHT22;10380;52.102;20.614;2022-08-19T14:50:32;40.40;75.00
20442;DHT22;10380;52.102;20.614;2022-08-19T14:53:07;40.50;74.90
20442;DHT22;10380;52.102;20.614;2022-08-19T14:55:44;40.50;75.10
20442;DHT22;10380;52.102;20.614;2022-08-19T14:58:11;40.50;74.40
20442;DHT22;10380;52.102;20.614;2022-08-19T15:00:57;40.50;74.70
20442;DHT22;10380;52.102;20.614;2022-08-19T15:03:25;40.60;74.70
20442;DHT22;10380;52.102;20.614;2022-08-19T15:05:53;40.50;74.90
20442;DHT22;10380;52.102;20.614;2022-08-19T15:08:20;40.50;75.20
20442;DHT22;10380;52.102;20.614;2022-08-19T15:10:49;40.50;74.70
20442;DHT22;10380;52.102;20.614;2022-08-19T15:13:16;40.60;75.00
20442;DHT22;10380;52.102;20.614;2022-08-19T15:15:43;40.60;75.10
20442;DHT22;10380;52.102;20.614;2022-08-19T15:18:10;40.50;75.10
20442;DHT22;10380;52.102;20.614;2022-08-19T15:20:38;40.40;75.00
20442;DHT22;10380;52.102;20.614;2022-08-19T15:23:07;40.40;76.10
20442;DHT22;10380;52.102;20.614;2022-08-19T15:25:34;40.30;75.90
20442;DHT22;10380;52.102;20.614;2022-08-19T15:28:02;40.20;76.10
20442;DHT22;10380;52.102;20.614;2022-08-19T15:30:30;40.10;76.10
20442;DHT22;10380;52.102;20.614;2022-08-19T15:32:57;40.10;76.20
20442;DHT22;10380;52.102;20.614;2022-08-19T15:35:26;40.00;75.90
20442;DHT22;10380;52.102;20.614;2022-08-19T15:37:55;39.90;75.90
20442;DHT22;10380;52.102;20.614;2022-08-19T15:40:25;39.80;76.50
20442;DHT22;10380;52.102;20.614;2022-08-19T15:42:52;39.80;76.90
20442;DHT22;10380;52.102;20.614;2022-08-19T15:45:21;39.70;77.00
20442;DHT22;10380;52.102;20.614;2022-08-19T15:47:48;39.50;77.40
20442;DHT22;10380;52.102;20.614;2022-08-19T15:50:18;39.30;77.10
20442;DHT22;10380;52.102;20.614;2022-08-19T15:52:50;39.20;77.10